首页
METAR-TAF:

METAR-TAF

机场 :

彭德-雅皮特國際機場

皮特尔角城, 瓜德罗普

纬度: 16-16N, 经度: 061-31W, 海拔: 11米

当前天气观测

该预报发布于21分钟前的09:00 UTC
风速6节,风向东转东北,在北转东北之间变化
温度 25°C
湿度 89%
气压 1013 hPa
能見度: 6000

METAR: TFFR 220900Z AUTO 06006KT 030V090 6000 R12/1000U FEW013/// SCT020/// BKN025/// ///CB 25/23 Q1013 BECMG SCT035

时间: 05:21 (09:21 UTC)

预报

该预报发布于4小时和21分钟前的05:00 UTC
预报有效从22日的 06点(UTC)到 23日的 06点(UTC)
风速3节,风向东转东南
能见度10公里或以上
散云层高于3500英尺
几率 40% :
短暂存在
从 22日的 06点(UTC)到 22日的 09点(UTC)
能見度: 3000
少量云层高于1200英尺, 积雨云.
多云层高于2000英尺, 塔状积云.
阵雨
成为
从 22日的 12点(UTC)到 22日的 15点(UTC)
风速13节,风向东转东南
成为
从 22日的 23点(UTC)到 23日的 01点(UTC)
风速3节,风向东转东南

TAF: TFFR 220500Z 2206/2306 12003KT 9999 SCT035 PROB40 TEMPO 2206/2209 3000 SHRA FEW012CB BKN020TCU BECMG 2212/2215 12013KT BECMG 2223/2301 11003KT

超过4000个机场的气象观测和天气预报(METAR&TAF报告)。

可查询的气象台以黄色和红色小点在地图上表示。

将鼠标移到小点上方,可查看气象台名称。

然后点击查看天气观测和预报。

如需切换地图:点击带黑十字的绿色按钮放大地图;点击带横线的绿色按钮缩小地图;或者点击绿色箭头查看邻近地区的地图。


METAR-TAF: